sensor_id;sensor_type;location;lat;lon;timestamp;temperature;humidity
24091;DHT22;12272;52.426;17.100;2022-08-19T00:04:39;25.90;99.90
24091;DHT22;12272;52.426;17.100;2022-08-19T00:09:42;25.90;99.90
24091;DHT22;12272;52.426;17.100;2022-08-19T00:14:45;25.90;99.90
24091;DHT22;12272;52.426;17.100;2022-08-19T00:19:48;25.90;99.90
24091;DHT22;12272;52.426;17.100;2022-08-19T00:24:50;25.90;99.90
24091;DHT22;12272;52.426;17.100;2022-08-19T00:29:53;25.90;99.90
24091;DHT22;12272;52.426;17.100;2022-08-19T00:34:55;25.90;99.90
24091;DHT22;12272;52.426;17.100;2022-08-19T00:39:58;25.90;99.90
24091;DHT22;12272;52.426;17.100;2022-08-19T00:45:01;25.90;99.90
24091;DHT22;12272;52.426;17.100;2022-08-19T00:50:04;25.90;99.90
24091;DHT22;12272;52.426;17.100;2022-08-19T00:55:08;25.90;99.90
24091;DHT22;12272;52.426;17.100;2022-08-19T01:00:17;25.90;99.90
24091;DHT22;12272;52.426;17.100;2022-08-19T01:05:27;25.90;99.90
24091;DHT22;12272;52.426;17.100;2022-08-19T01:10:33;25.90;99.90
24091;DHT22;12272;52.426;17.100;2022-08-19T01:15:43;25.90;99.90
24091;DHT22;12272;52.426;17.100;2022-08-19T01:20:47;25.90;99.90
24091;DHT22;12272;52.426;17.100;2022-08-19T01:25:51;25.90;99.90
24091;DHT22;12272;52.426;17.100;2022-08-19T01:30:55;25.90;99.90
24091;DHT22;12272;52.426;17.100;2022-08-19T01:36:06;25.90;99.90
24091;DHT22;12272;52.426;17.100;2022-08-19T01:41:11;25.90;99.90
24091;DHT22;12272;52.426;17.100;2022-08-19T01:46:13;25.90;99.90
24091;DHT22;12272;52.426;17.100;2022-08-19T01:51:16;25.80;99.90
24091;DHT22;12272;52.426;17.100;2022-08-19T01:56:19;25.80;99.90
24091;DHT22;12272;52.426;17.100;2022-08-19T02:01:22;25.80;99.90
24091;DHT22;12272;52.426;17.100;2022-08-19T02:06:28;25.80;99.90
24091;DHT22;12272;52.426;17.100;2022-08-19T02:11:33;25.80;99.90
24091;DHT22;12272;52.426;17.100;2022-08-19T02:16:36;25.80;99.90
24091;DHT22;12272;52.426;17.100;2022-08-19T02:21:39;25.90;99.90
24091;DHT22;12272;52.426;17.100;2022-08-19T02:26:41;25.80;99.90
24091;DHT22;12272;52.426;17.100;2022-08-19T02:31:44;25.80;99.90
24091;DHT22;12272;52.426;17.100;2022-08-19T02:36:47;25.80;99.90
24091;DHT22;12272;52.426;17.100;2022-08-19T02:41:53;25.80;99.90
24091;DHT22;12272;52.426;17.100;2022-08-19T02:46:55;25.80;99.90
24091;DHT22;12272;52.426;17.100;2022-08-19T02:51:58;25.80;99.90
24091;DHT22;12272;52.426;17.100;2022-08-19T02:57:02;25.80;99.90
24091;DHT22;12272;52.426;17.100;2022-08-19T03:02:04;25.80;99.90
24091;DHT22;12272;52.426;17.100;2022-08-19T03:07:07;25.80;99.90
24091;DHT22;12272;52.426;17.100;2022-08-19T03:12:12;25.80;99.90
24091;DHT22;12272;52.426;17.100;2022-08-19T03:17:15;25.80;99.90
24091;DHT22;12272;52.426;17.100;2022-08-19T03:22:17;25.80;99.90
24091;DHT22;12272;52.426;17.100;2022-08-19T03:27:20;25.80;99.90
24091;DHT22;12272;52.426;17.100;2022-08-19T03:32:23;25.70;99.90
24091;DHT22;12272;52.426;17.100;2022-08-19T03:37:34;25.70;99.90
24091;DHT22;12272;52.426;17.100;2022-08-19T03:42:37;25.80;99.90
24091;DHT22;12272;52.426;17.100;2022-08-19T03:47:50;25.70;99.90
24091;DHT22;12272;52.426;17.100;2022-08-19T03:52:53;25.80;99.90
24091;DHT22;12272;52.426;17.100;2022-08-19T03:57:55;25.80;99.90
24091;DHT22;12272;52.426;17.100;2022-08-19T04:03:00;25.80;99.90
24091;DHT22;12272;52.426;17.100;2022-08-19T04:08:04;25.80;99.90
24091;DHT22;12272;52.426;17.100;2022-08-19T04:13:15;25.70;99.90
24091;DHT22;12272;52.426;17.100;2022-08-19T04:18:17;25.70;99.90
24091;DHT22;12272;52.426;17.100;2022-08-19T04:23:20;25.70;99.90
24091;DHT22;12272;52.426;17.100;2022-08-19T04:28:23;25.70;99.90
24091;DHT22;12272;52.426;17.100;2022-08-19T04:33:26;25.80;99.90
24091;DHT22;12272;52.426;17.100;2022-08-19T04:38:30;25.80;99.90
24091;DHT22;12272;52.426;17.100;2022-08-19T04:43:34;25.80;99.90
24091;DHT22;12272;52.426;17.100;2022-08-19T04:48:38;25.90;99.90
24091;DHT22;12272;52.426;17.100;2022-08-19T04:53:50;25.90;99.90
24091;DHT22;12272;52.426;17.100;2022-08-19T04:58:55;26.00;99.90
24091;DHT22;12272;52.426;17.100;2022-08-19T05:03:59;25.90;99.90
24091;DHT22;12272;52.426;17.100;2022-08-19T05:09:04;25.90;99.90
24091;DHT22;12272;52.426;17.100;2022-08-19T05:14:07;26.00;99.90
24091;DHT22;12272;52.426;17.100;2022-08-19T05:19:10;25.90;99.90
24091;DHT22;12272;52.426;17.100;2022-08-19T05:24:34;25.90;99.90
24091;DHT22;12272;52.426;17.100;2022-08-19T05:29:57;26.00;99.90
24091;DHT22;12272;52.426;17.100;2022-08-19T05:35:00;26.00;99.90
24091;DHT22;12272;52.426;17.100;2022-08-19T05:40:04;25.90;99.90
24091;DHT22;12272;52.426;17.100;2022-08-19T05:45:07;26.00;99.90
24091;DHT22;12272;52.426;17.100;2022-08-19T05:50:10;26.00;99.90
24091;DHT22;12272;52.426;17.100;2022-08-19T05:55:12;26.00;99.90
24091;DHT22;12272;52.426;17.100;2022-08-19T06:00:15;26.00;99.90
24091;DHT22;12272;52.426;17.100;2022-08-19T06:05:23;26.00;99.90
24091;DHT22;12272;52.426;17.100;2022-08-19T06:10:27;26.10;99.90
24091;DHT22;12272;52.426;17.100;2022-08-19T06:15:30;26.10;99.90
24091;DHT22;12272;52.426;17.100;2022-08-19T06:20:32;26.10;99.90
24091;DHT22;12272;52.426;17.100;2022-08-19T06:25:55;26.00;99.90
24091;DHT22;12272;52.426;17.100;2022-08-19T06:30:57;26.10;99.90
24091;DHT22;12272;52.426;17.100;2022-08-19T06:36:00;26.10;99.90
24091;DHT22;12272;52.426;17.100;2022-08-19T06:41:03;26.20;99.90
24091;DHT22;12272;52.426;17.100;2022-08-19T06:46:11;26.20;99.90
24091;DHT22;12272;52.426;17.100;2022-08-19T06:51:16;26.20;99.90
24091;DHT22;12272;52.426;17.100;2022-08-19T06:56:25;26.20;99.90
24091;DHT22;12272;52.426;17.100;2022-08-19T07:01:44;26.20;99.90
24091;DHT22;12272;52.426;17.100;2022-08-19T07:06:48;26.10;99.90
24091;DHT22;12272;52.426;17.100;2022-08-19T07:11:56;26.20;99.90
24091;DHT22;12272;52.426;17.100;2022-08-19T07:16:59;26.30;99.90
24091;DHT22;12272;52.426;17.100;2022-08-19T07:22:03;26.40;99.90
24091;DHT22;12272;52.426;17.100;2022-08-19T07:27:06;26.60;99.90
24091;DHT22;12272;52.426;17.100;2022-08-19T07:32:16;26.70;99.90
24091;DHT22;12272;52.426;17.100;2022-08-19T07:37:18;26.80;99.90
24091;DHT22;12272;52.426;17.100;2022-08-19T07:42:21;26.80;99.90
24091;DHT22;12272;52.426;17.100;2022-08-19T07:47:23;26.80;99.90
24091;DHT22;12272;52.426;17.100;2022-08-19T07:52:46;26.80;99.90
24091;DHT22;12272;52.426;17.100;2022-08-19T07:57:50;26.90;99.90
24091;DHT22;12272;52.426;17.100;2022-08-19T08:02:54;27.00;99.90
24091;DHT22;12272;52.426;17.100;2022-08-19T08:07:57;27.20;99.90
24091;DHT22;12272;52.426;17.100;2022-08-19T08:13:18;27.30;99.90
24091;DHT22;12272;52.426;17.100;2022-08-19T08:18:21;27.30;99.90
24091;DHT22;12272;52.426;17.100;2022-08-19T08:23:28;27.10;99.90
24091;DHT22;12272;52.426;17.100;2022-08-19T08:28:32;27.20;99.90
24091;DHT22;12272;52.426;17.100;2022-08-19T08:33:34;27.20;99.90
24091;DHT22;12272;52.426;17.100;2022-08-19T08:38:38;27.40;99.90
24091;DHT22;12272;52.426;17.100;2022-08-19T08:43:46;27.80;99.90
24091;DHT22;12272;52.426;17.100;2022-08-19T08:48:56;27.70;99.90
24091;DHT22;12272;52.426;17.100;2022-08-19T08:54:07;27.80;99.90
24091;DHT22;12272;52.426;17.100;2022-08-19T08:59:30;28.20;99.90
24091;DHT22;12272;52.426;17.100;2022-08-19T09:04:36;28.20;99.90
24091;DHT22;12272;52.426;17.100;2022-08-19T09:09:45;28.60;99.90
24091;DHT22;12272;52.426;17.100;2022-08-19T09:14:57;28.60;99.90
24091;DHT22;12272;52.426;17.100;2022-08-19T09:25:13;28.30;99.90
24091;DHT22;12272;52.426;17.100;2022-08-19T09:30:19;28.30;99.90
24091;DHT22;12272;52.426;17.100;2022-08-19T09:35:25;28.90;99.90
24091;DHT22;12272;52.426;17.100;2022-08-19T09:40:30;29.20;99.90
24091;DHT22;12272;52.426;17.100;2022-08-19T09:45:39;29.40;99.90
24091;DHT22;12272;52.426;17.100;2022-08-19T09:50:42;29.30;99.90
24091;DHT22;12272;52.426;17.100;2022-08-19T09:55:55;29.50;99.90
24091;DHT22;12272;52.426;17.100;2022-08-19T10:00:58;29.60;99.90
24091;DHT22;12272;52.426;17.100;2022-08-19T10:06:04;29.70;99.90
24091;DHT22;12272;52.426;17.100;2022-08-19T10:11:17;29.40;99.90
24091;DHT22;12272;52.426;17.100;2022-08-19T10:16:37;29.70;99.90
24091;DHT22;12272;52.426;17.100;2022-08-19T10:26:44;30.10;99.90
24091;DHT22;12272;52.426;17.100;2022-08-19T10:31:58;30.40;99.90
24091;DHT22;12272;52.426;17.100;2022-08-19T10:37:04;30.40;99.90
24091;DHT22;12272;52.426;17.100;2022-08-19T10:42:12;30.40;99.90
24091;DHT22;12272;52.426;17.100;2022-08-19T10:47:15;30.50;99.90
24091;DHT22;12272;52.426;17.100;2022-08-19T10:52:27;30.60;99.90
24091;DHT22;12272;52.426;17.100;2022-08-19T10:57:40;30.50;99.90
24091;DHT22;12272;52.426;17.100;2022-08-19T11:03:04;30.60;99.90
24091;DHT22;12272;52.426;17.100;2022-08-19T11:13:25;30.50;99.90
24091;DHT22;12272;52.426;17.100;2022-08-19T11:18:27;30.60;99.90
24091;DHT22;12272;52.426;17.100;2022-08-19T11:23:30;30.80;99.90
24091;DHT22;12272;52.426;17.100;2022-08-19T11:28:32;30.60;99.90
24091;DHT22;12272;52.426;17.100;2022-08-19T11:33:35;30.80;99.90
24091;DHT22;12272;52.426;17.100;2022-08-19T11:38:39;30.80;99.90
24091;DHT22;12272;52.426;17.100;2022-08-19T11:43:43;30.70;99.90
24091;DHT22;12272;52.426;17.100;2022-08-19T11:48:45;30.70;99.90
24091;DHT22;12272;52.426;17.100;2022-08-19T11:53:48;30.90;99.40
24091;DHT22;12272;52.426;17.100;2022-08-19T11:58:53;30.80;99.90
24091;DHT22;12272;52.426;17.100;2022-08-19T12:03:57;30.90;99.90
24091;DHT22;12272;52.426;17.100;2022-08-19T12:14:10;31.00;99.00
24091;DHT22;12272;52.426;17.100;2022-08-19T12:19:16;30.90;99.90
24091;DHT22;12272;52.426;17.100;2022-08-19T12:29:27;30.80;99.90
24091;DHT22;12272;52.426;17.100;2022-08-19T12:34:32;30.60;99.90
24091;DHT22;12272;52.426;17.100;2022-08-19T12:39:38;30.80;99.90
24091;DHT22;12272;52.426;17.100;2022-08-19T12:44:42;31.10;98.70
24091;DHT22;12272;52.426;17.100;2022-08-19T12:49:45;31.30;99.90
24091;DHT22;12272;52.426;17.100;2022-08-19T12:54:57;31.00;99.90
24091;DHT22;12272;52.426;17.100;2022-08-19T13:00:01;31.20;98.60
24091;DHT22;12272;52.426;17.100;2022-08-19T13:05:09;31.20;99.90
24091;DHT22;12272;52.426;17.100;2022-08-19T13:10:15;31.20;99.90
24091;DHT22;12272;52.426;17.100;2022-08-19T13:15:20;31.50;99.90
24091;DHT22;12272;52.426;17.100;2022-08-19T13:20:25;31.50;99.70
24091;DHT22;12272;52.426;17.100;2022-08-19T13:25:28;31.40;99.70
24091;DHT22;12272;52.426;17.100;2022-08-19T13:30:30;31.40;99.90
24091;DHT22;12272;52.426;17.100;2022-08-19T13:35:57;31.40;99.90
24091;DHT22;12272;52.426;17.100;2022-08-19T13:41:05;31.20;99.90
24091;DHT22;12272;52.426;17.100;2022-08-19T13:46:14;30.80;99.90
24091;DHT22;12272;52.426;17.100;2022-08-19T14:07:50;30.60;99.90
24091;DHT22;12272;52.426;17.100;2022-08-19T14:12:54;30.80;99.90
24091;DHT22;12272;52.426;17.100;2022-08-19T14:17:57;30.70;99.90
24091;DHT22;12272;52.426;17.100;2022-08-19T14:23:00;30.60;99.90
24091;DHT22;12272;52.426;17.100;2022-08-19T14:28:03;30.70;99.90
24091;DHT22;12272;52.426;17.100;2022-08-19T14:33:06;30.60;99.90
24091;DHT22;12272;52.426;17.100;2022-08-19T14:38:15;30.50;99.90
24091;DHT22;12272;52.426;17.100;2022-08-19T14:43:29;30.30;99.90
24091;DHT22;12272;52.426;17.100;2022-08-19T14:48:31;30.30;99.90
24091;DHT22;12272;52.426;17.100;2022-08-19T14:53:34;30.20;99.90
24091;DHT22;12272;52.426;17.100;2022-08-19T14:58:38;30.00;99.90
24091;DHT22;12272;52.426;17.100;2022-08-19T15:03:42;29.80;99.90
24091;DHT22;12272;52.426;17.100;2022-08-19T15:08:45;29.90;99.90
24091;DHT22;12272;52.426;17.100;2022-08-19T15:13:48;29.90;99.90
24091;DHT22;12272;52.426;17.100;2022-08-19T15:18:54;29.70;99.90
24091;DHT22;12272;52.426;17.100;2022-08-19T15:23:59;29.60;99.90
24091;DHT22;12272;52.426;17.100;2022-08-19T15:29:04;29.50;99.90
24091;DHT22;12272;52.426;17.100;2022-08-19T15:34:07;29.40;99.90
24091;DHT22;12272;52.426;17.100;2022-08-19T15:39:09;29.30;99.90
24091;DHT22;12272;52.426;17.100;2022-08-19T15:44:14;29.20;99.90
24091;DHT22;12272;52.426;17.100;2022-08-19T15:49:18;29.20;99.90
24091;DHT22;12272;52.426;17.100;2022-08-19T15:54:21;29.00;99.90
24091;DHT22;12272;52.426;17.100;2022-08-19T15:59:24;28.90;99.90
24091;DHT22;12272;52.426;17.100;2022-08-19T16:04:50;28.80;99.90
24091;DHT22;12272;52.426;17.100;2022-08-19T16:10:11;28.80;99.90
24091;DHT22;12272;52.426;17.100;2022-08-19T16:15:29;28.70;99.90
24091;DHT22;12272;52.426;17.100;2022-08-19T16:20:32;28.60;99.90
24091;DHT22;12272;52.426;17.100;2022-08-19T16:25:36;28.50;99.90
24091;DHT22;12272;52.426;17.100;2022-08-19T16:30:40;28.30;99.90
24091;DHT22;12272;52.426;17.100;2022-08-19T16:35:52;28.20;99.90
24091;DHT22;12272;52.426;17.100;2022-08-19T16:41:08;28.10;99.90
24091;DHT22;12272;52.426;17.100;2022-08-19T16:46:11;28.00;99.90
24091;DHT22;12272;52.426;17.100;2022-08-19T16:51:19;27.90;99.90
24091;DHT22;12272;52.426;17.100;2022-08-19T16:56:24;27.90;99.90
24091;DHT22;12272;52.426;17.100;2022-08-19T17:01:27;27.80;99.90
24091;DHT22;12272;52.426;17.100;2022-08-19T17:06:29;27.80;99.90
24091;DHT22;12272;52.426;17.100;2022-08-19T17:11:32;27.70;99.90
24091;DHT22;12272;52.426;17.100;2022-08-19T17:16:36;27.60;99.90
24091;DHT22;12272;52.426;17.100;2022-08-19T17:21:38;27.50;99.90
24091;DHT22;12272;52.426;17.100;2022-08-19T17:26:42;27.50;99.90
24091;DHT22;12272;52.426;17.100;2022-08-19T17:31:45;27.40;99.90
24091;DHT22;12272;52.426;17.100;2022-08-19T17:36:47;27.30;99.90
24091;DHT22;12272;52.426;17.100;2022-08-19T17:41:50;27.30;99.90
24091;DHT22;12272;52.426;17.100;2022-08-19T17:46:52;27.20;99.90
24091;DHT22;12272;52.426;17.100;2022-08-19T17:51:55;27.10;99.90
24091;DHT22;12272;52.426;17.100;2022-08-19T17:56:58;27.00;99.90
24091;DHT22;12272;52.426;17.100;2022-08-19T18:02:01;27.00;99.90
24091;DHT22;12272;52.426;17.100;2022-08-19T18:07:05;27.00;99.90
24091;DHT22;12272;52.426;17.100;2022-08-19T18:12:09;26.90;99.90
24091;DHT22;12272;52.426;17.100;2022-08-19T18:17:15;26.90;99.90
24091;DHT22;12272;52.426;17.100;2022-08-19T18:22:36;26.90;99.90
24091;DHT22;12272;52.426;17.100;2022-08-19T18:27:39;26.80;99.90
24091;DHT22;12272;52.426;17.100;2022-08-19T18:32:43;26.80;99.90
24091;DHT22;12272;52.426;17.100;2022-08-19T18:37:48;27.20;99.90
24091;DHT22;12272;52.426;17.100;2022-08-19T18:42:50;27.30;99.90
24091;DHT22;12272;52.426;17.100;2022-08-19T18:48:11;27.40;99.90
24091;DHT22;12272;52.426;17.100;2022-08-19T18:53:38;27.70;99.90
24091;DHT22;12272;52.426;17.100;2022-08-19T18:58:42;28.00;99.90
24091;DHT22;12272;52.426;17.100;2022-08-19T19:03:47;28.20;99.90
24091;DHT22;12272;52.426;17.100;2022-08-19T19:08:51;28.40;99.90
24091;DHT22;12272;52.426;17.100;2022-08-19T19:13:54;28.50;99.90
24091;DHT22;12272;52.426;17.100;2022-08-19T19:18:57;28.70;99.90
24091;DHT22;12272;52.426;17.100;2022-08-19T19:24:00;28.80;99.90
24091;DHT22;12272;52.426;17.100;2022-08-19T19:29:02;28.80;99.90
24091;DHT22;12272;52.426;17.100;2022-08-19T19:34:06;28.90;99.90
24091;DHT22;12272;52.426;17.100;2022-08-19T19:39:28;28.90;99.90
24091;DHT22;12272;52.426;17.100;2022-08-19T19:44:49;28.90;99.90
24091;DHT22;12272;52.426;17.100;2022-08-19T19:49:53;28.90;99.90
24091;DHT22;12272;52.426;17.100;2022-08-19T19:55:16;28.90;99.90
24091;DHT22;12272;52.426;17.100;2022-08-19T20:00:20;28.90;99.90
24091;DHT22;12272;52.426;17.100;2022-08-19T20:05:24;28.90;99.90
24091;DHT22;12272;52.426;17.100;2022-08-19T20:10:26;28.80;99.90
24091;DHT22;12272;52.426;17.100;2022-08-19T20:15:30;28.80;99.90
24091;DHT22;12272;52.426;17.100;2022-08-19T20:20:33;28.80;99.90
24091;DHT22;12272;52.426;17.100;2022-08-19T20:25:37;28.80;99.90
24091;DHT22;12272;52.426;17.100;2022-08-19T20:30:41;28.80;99.90
24091;DHT22;12272;52.426;17.100;2022-08-19T20:35:48;28.70;99.90
24091;DHT22;12272;52.426;17.100;2022-08-19T20:40:50;28.70;99.90
24091;DHT22;12272;52.426;17.100;2022-08-19T20:45:54;28.60;99.90
24091;DHT22;12272;52.426;17.100;2022-08-19T20:50:57;28.70;99.90
24091;DHT22;12272;52.426;17.100;2022-08-19T20:56:00;28.40;99.90
24091;DHT22;12272;52.426;17.100;2022-08-19T21:01:05;28.40;99.90
24091;DHT22;12272;52.426;17.100;2022-08-19T21:06:10;28.40;99.90
24091;DHT22;12272;52.426;17.100;2022-08-19T21:11:15;28.10;99.90
24091;DHT22;12272;52.426;17.100;2022-08-19T21:16:23;28.30;99.90
24091;DHT22;12272;52.426;17.100;2022-08-19T21:21:26;28.10;99.90
24091;DHT22;12272;52.426;17.100;2022-08-19T21:26:29;28.10;99.90
24091;DHT22;12272;52.426;17.100;2022-08-19T21:31:32;28.20;99.90
24091;DHT22;12272;52.426;17.100;2022-08-19T21:36:34;28.30;99.90
24091;DHT22;12272;52.426;17.100;2022-08-19T21:41:37;28.40;99.90
24091;DHT22;12272;52.426;17.100;2022-08-19T21:46:44;28.50;99.90
24091;DHT22;12272;52.426;17.100;2022-08-19T21:52:02;28.40;99.90
24091;DHT22;12272;52.426;17.100;2022-08-19T21:57:06;28.30;99.90
24091;DHT22;12272;52.426;17.100;2022-08-19T22:02:13;28.30;99.90
24091;DHT22;12272;52.426;17.100;2022-08-19T22:07:22;28.30;99.90
24091;DHT22;12272;52.426;17.100;2022-08-19T22:12:27;28.30;99.90
24091;DHT22;12272;52.426;17.100;2022-08-19T22:17:30;28.30;99.90
24091;DHT22;12272;52.426;17.100;2022-08-19T22:22:35;28.40;99.90
24091;DHT22;12272;52.426;17.100;2022-08-19T22:27:38;28.30;99.90
24091;DHT22;12272;52.426;17.100;2022-08-19T22:32:46;28.30;99.90
24091;DHT22;12272;52.426;17.100;2022-08-19T22:37:58;28.30;99.90
24091;DHT22;12272;52.426;17.100;2022-08-19T22:43:08;28.20;99.90
24091;DHT22;12272;52.426;17.100;2022-08-19T22:48:13;28.30;99.90
24091;DHT22;12272;52.426;17.100;2022-08-19T22:53:16;25.60;99.90
24091;DHT22;12272;52.426;17.100;2022-08-19T22:58:19;27.10;99.90
24091;DHT22;12272;52.426;17.100;2022-08-19T23:03:29;27.60;99.90
24091;DHT22;12272;52.426;17.100;2022-08-19T23:08:32;27.80;99.90
24091;DHT22;12272;52.426;17.100;2022-08-19T23:13:34;27.90;99.90
24091;DHT22;12272;52.426;17.100;2022-08-19T23:18:37;27.90;99.90
24091;DHT22;12272;52.426;17.100;2022-08-19T23:23:39;27.90;99.90
24091;DHT22;12272;52.426;17.100;2022-08-19T23:28:42;28.00;99.90
24091;DHT22;12272;52.426;17.100;2022-08-19T23:34:03;28.00;99.90
24091;DHT22;12272;52.426;17.100;2022-08-19T23:39:07;28.00;99.90
24091;DHT22;12272;52.426;17.100;2022-08-19T23:44:09;27.90;99.90
24091;DHT22;12272;52.426;17.100;2022-08-19T23:49:16;27.90;99.90
24091;DHT22;12272;52.426;17.100;2022-08-19T23:54:18;27.90;99.90
24091;DHT22;12272;52.426;17.100;2022-08-19T23:59:21;27.80;99.90
